Time;durP1;ratioP1;P1;durP2;ratioP2;P2;SDS_P1;SDS_P2;PMS_P1;PMS_P2;Temp;Humidity;BMP_temperature;BMP_pressure;BME280_temperature;BME280_humidity;BME280_pressure;Samples;Min_cycle;Max_cycle;Signal;HPM_P1;HPM_P2
2022/06/29 00:00:03;;;;;;;;;;;19.30;97.80;;;;;;4374449;32;44526;-82
2022/06/29 00:02:30;;;;;;;;;;;19.30;97.70;;;;;;4356517;32;44020;-82
2022/06/29 00:04:57;;;;;;;;;;;19.30;97.70;;;;;;4345088;33;42885;-81
2022/06/29 00:07:24;;;;;;;;;;;19.30;97.70;;;;;;4344616;33;46385;-81
2022/06/29 00:09:51;;;;;;;;;;;19.30;97.70;;;;;;4356953;32;45820;-81
2022/06/29 00:12:18;;;;;;;;;;;19.30;97.80;;;;;;4344423;33;44267;-82
2022/06/29 00:14:45;;;;;;;;;;;19.30;97.90;;;;;;4345191;33;44543;-81
2022/06/29 00:17:17;;;;;;;;;;;19.30;97.80;;;;;;4355915;32;43008;-82
2022/06/29 00:19:44;;;;;;;;;;;19.30;97.90;;;;;;4344026;33;45194;-81
2022/06/29 00:22:11;;;;;;;;;;;19.30;98.00;;;;;;4356696;32;43913;-81
2022/06/29 00:24:38;;;;;;;;;;;19.20;97.90;;;;;;4344425;33;45362;-81
2022/06/29 00:27:05;;;;;;;;;;;19.30;97.90;;;;;;4344087;33;43033;-81
2022/06/29 00:29:32;;;;;;;;;;;19.20;97.90;;;;;;4356477;32;43782;-81
2022/06/29 00:32:00;;;;;;;;;;;19.30;97.70;;;;;;4344720;33;44483;-82
2022/06/29 00:34:27;;;;;;;;;;;19.30;97.80;;;;;;4344327;33;44199;-82
2022/06/29 00:36:54;;;;;;;;;;;19.20;97.80;;;;;;4356323;32;44266;-82
2022/06/29 00:39:21;;;;;;;;;;;19.20;97.80;;;;;;4344309;33;44946;-81
2022/06/29 00:41:48;;;;;;;;;;;19.20;98.00;;;;;;4344196;33;45471;-80
2022/06/29 00:44:17;;;;;;;;;;;19.20;98.00;;;;;;4344785;33;43885;-81
2022/06/29 00:46:47;;;;;;;;;;;19.20;97.90;;;;;;4344807;33;43473;-82
2022/06/29 00:49:15;;;;;;;;;;;19.20;97.90;;;;;;4356617;32;44733;-82
2022/06/29 00:51:46;;;;;;;;;;;19.20;97.90;;;;;;4356534;33;44208;-79
2022/06/29 00:54:23;;;;;;;;;;;19.20;98.00;;;;;;4343728;33;44157;-81
2022/06/29 00:56:51;;;;;;;;;;;19.20;97.80;;;;;;4345316;33;45701;-82
2022/06/29 00:59:19;;;;;;;;;;;19.20;97.90;;;;;;4344039;33;44460;-83
2022/06/29 01:01:46;;;;;;;;;;;19.10;97.80;;;;;;4352513;32;44880;-84
2022/06/29 01:04:13;;;;;;;;;;;19.10;97.90;;;;;;4360995;32;43755;-82
2022/06/29 01:06:41;;;;;;;;;;;19.10;97.90;;;;;;4374149;32;20064;-82
2022/06/29 01:09:08;;;;;;;;;;;19.10;97.90;;;;;;4360898;32;45700;-82
2022/06/29 01:11:35;;;;;;;;;;;19.10;98.00;;;;;;4360878;32;45223;-83
2022/06/29 01:14:02;;;;;;;;;;;19.10;98.00;;;;;;4373264;32;44126;-81
2022/06/29 01:16:30;;;;;;;;;;;19.10;98.00;;;;;;4360829;32;44021;-83
2022/06/29 01:18:58;;;;;;;;;;;19.10;98.00;;;;;;4360911;32;44066;-82
2022/06/29 01:21:27;;;;;;;;;;;19.10;98.00;;;;;;4373186;32;44563;-83
2022/06/29 01:23:54;;;;;;;;;;;19.10;97.90;;;;;;4360896;32;44294;-83
2022/06/29 01:26:21;;;;;;;;;;;19.10;98.00;;;;;;4373666;32;43955;-85
2022/06/29 01:28:48;;;;;;;;;;;19.10;97.90;;;;;;4373780;32;43841;-82
2022/06/29 01:31:16;;;;;;;;;;;19.10;97.80;;;;;;4373317;32;44078;-82
2022/06/29 01:33:44;;;;;;;;;;;19.10;97.70;;;;;;4361048;32;44307;-81
2022/06/29 01:36:12;;;;;;;;;;;19.10;97.60;;;;;;4373520;32;45090;-82
2022/06/29 01:38:39;;;;;;;;;;;19.00;97.60;;;;;;4361293;32;43128;-83
2022/06/29 01:41:08;;;;;;;;;;;19.00;97.70;;;;;;4361170;32;44794;-83
2022/06/29 01:43:35;;;;;;;;;;;19.00;97.70;;;;;;4376079;32;44207;-83
2022/06/29 01:46:02;;;;;;;;;;;19.00;97.70;;;;;;4363650;32;42550;-83
2022/06/29 01:48:29;;;;;;;;;;;19.00;97.80;;;;;;4376434;32;46042;-84
2022/06/29 01:50:57;;;;;;;;;;;19.00;97.70;;;;;;4376178;32;45753;-82
2022/06/29 01:53:25;;;;;;;;;;;19.00;97.50;;;;;;4376855;32;43246;-83
2022/06/29 01:55:52;;;;;;;;;;;19.00;97.70;;;;;;4363323;32;45844;-82
2022/06/29 01:58:20;;;;;;;;;;;19.00;97.50;;;;;;4363803;32;44391;-82
2022/06/29 02:00:47;;;;;;;;;;;19.00;97.40;;;;;;4363235;32;45715;-82
2022/06/29 02:03:14;;;;;;;;;;;19.00;97.40;;;;;;4363222;32;43431;-82
2022/06/29 02:05:41;;;;;;;;;;;19.00;97.40;;;;;;4375790;32;44579;-83
2022/06/29 02:08:09;;;;;;;;;;;19.00;97.50;;;;;;4363620;32;44164;-82
2022/06/29 02:10:36;;;;;;;;;;;19.00;97.50;;;;;;4376940;32;43027;-83
2022/06/29 02:13:03;;;;;;;;;;;18.90;97.50;;;;;;4376109;32;45924;-83
2022/06/29 02:15:31;;;;;;;;;;;18.90;97.60;;;;;;4375476;32;44854;-82
2022/06/29 02:17:58;;;;;;;;;;;18.90;97.50;;;;;;4377032;32;43904;-82
2022/06/29 02:20:25;;;;;;;;;;;18.90;97.60;;;;;;4363108;32;44213;-82
2022/06/29 02:22:52;;;;;;;;;;;18.90;97.50;;;;;;4375745;32;46046;-82
2022/06/29 02:25:20;;;;;;;;;;;19.00;97.50;;;;;;4362836;32;44454;-82
2022/06/29 02:27:47;;;;;;;;;;;18.90;97.80;;;;;;4363394;32;44810;-82
2022/06/29 02:30:15;;;;;;;;;;;18.90;97.60;;;;;;4375852;32;44332;-82
2022/06/29 02:35:29;;;;;;;;;;;18.90;97.50;;;;;;4376767;32;44895;-83
2022/06/29 02:37:56;;;;;;;;;;;18.90;97.70;;;;;;4375323;32;43426;-83
2022/06/29 02:40:23;;;;;;;;;;;18.90;97.60;;;;;;4376684;32;43788;-83
2022/06/29 02:42:51;;;;;;;;;;;18.90;97.60;;;;;;4376323;32;43394;-82
2022/06/29 02:45:33;;;;;;;;;;;18.90;97.50;;;;;;4364930;32;43878;-83
2022/06/29 02:48:00;;;;;;;;;;;18.90;97.30;;;;;;4376568;32;44100;-82
2022/06/29 02:50:28;;;;;;;;;;;18.90;97.40;;;;;;4375476;32;45263;-82
2022/06/29 02:52:55;;;;;;;;;;;18.80;97.40;;;;;;4362759;32;45759;-81
2022/06/29 02:55:22;;;;;;;;;;;18.90;97.50;;;;;;4374851;32;44246;-82
2022/06/29 02:57:49;;;;;;;;;;;18.80;97.40;;;;;;4375379;32;44306;-82
2022/06/29 03:00:16;;;;;;;;;;;18.90;97.40;;;;;;4362572;32;43157;-83
2022/06/29 03:02:43;;;;;;;;;;;18.80;97.50;;;;;;4374951;32;44575;-82
2022/06/29 03:05:10;;;;;;;;;;;18.80;97.50;;;;;;4374885;32;44680;-82
2022/06/29 03:07:38;;;;;;;;;;;18.80;97.60;;;;;;4376661;32;20000;-82
2022/06/29 03:10:05;;;;;;;;;;;18.80;97.60;;;;;;4374956;32;45678;-82
2022/06/29 03:12:32;;;;;;;;;;;18.80;97.60;;;;;;4362816;32;45479;-81
2022/06/29 03:14:59;;;;;;;;;;;18.80;97.70;;;;;;4362578;32;45111;-83
2022/06/29 03:17:26;;;;;;;;;;;18.80;97.70;;;;;;4375807;32;42694;-82
2022/06/29 03:19:53;;;;;;;;;;;18.80;97.60;;;;;;4362330;32;42710;-82
2022/06/29 03:22:20;;;;;;;;;;;18.80;97.60;;;;;;4375099;32;44980;-82
2022/06/29 03:24:47;;;;;;;;;;;18.80;97.50;;;;;;4376048;32;44114;-84
2022/06/29 03:27:14;;;;;;;;;;;18.80;97.60;;;;;;4362467;32;43473;-83
2022/06/29 03:29:43;;;;;;;;;;;18.70;97.40;;;;;;4362461;32;43405;-83
2022/06/29 03:32:10;;;;;;;;;;;18.80;97.40;;;;;;4374317;32;44355;-82
2022/06/29 03:34:37;;;;;;;;;;;18.70;97.40;;;;;;4362084;32;43481;-82
2022/06/29 03:37:04;;;;;;;;;;;18.70;97.50;;;;;;4362480;32;45365;-82
2022/06/29 03:39:31;;;;;;;;;;;18.70;97.50;;;;;;4374309;32;43473;-83
2022/06/29 03:41:59;;;;;;;;;;;18.70;97.60;;;;;;4362282;32;44494;-82
2022/06/29 03:44:26;;;;;;;;;;;18.70;97.70;;;;;;4362232;32;46230;-83
2022/06/29 03:46:53;;;;;;;;;;;18.70;97.60;;;;;;4374431;32;45515;-82
2022/06/29 03:49:21;;;;;;;;;;;18.70;97.90;;;;;;4362290;32;44363;-83
2022/06/29 03:51:48;;;;;;;;;;;18.70;97.40;;;;;;4361829;32;45362;-84
2022/06/29 03:54:15;;;;;;;;;;;18.60;97.40;;;;;;4374470;32;45410;-83
2022/06/29 03:56:43;;;;;;;;;;;18.60;97.70;;;;;;4362108;32;46098;-84
2022/06/29 03:59:10;;;;;;;;;;;18.60;97.30;;;;;;4362081;32;44433;-84
2022/06/29 04:01:37;;;;;;;;;;;18.60;97.20;;;;;;4375042;32;43847;-84
2022/06/29 04:04:06;;;;;;;;;;;18.60;97.20;;;;;;4374599;32;44890;-83
2022/06/29 04:06:33;;;;;;;;;;;18.60;97.20;;;;;;4373676;32;44381;-83
2022/06/29 04:09:00;;;;;;;;;;;18.60;97.20;;;;;;4373844;32;44792;-85
2022/06/29 04:14:13;;;;;;;;;;;18.60;97.30;;;;;;4375405;32;45182;-84
2022/06/29 04:16:40;;;;;;;;;;;18.60;97.10;;;;;;4375459;32;46027;-85
2022/06/29 04:19:07;;;;;;;;;;;18.60;97.10;;;;;;4361809;32;43543;-83
2022/06/29 04:21:34;;;;;;;;;;;18.60;97.20;;;;;;4373717;32;42531;-85
2022/06/29 04:24:02;;;;;;;;;;;18.60;97.40;;;;;;4361759;32;44341;-83
2022/06/29 04:26:29;;;;;;;;;;;18.50;97.20;;;;;;4375192;32;42445;-85
2022/06/29 04:28:56;;;;;;;;;;;18.50;97.20;;;;;;4374201;32;45475;-84
2022/06/29 04:31:23;;;;;;;;;;;18.60;97.40;;;;;;4361695;32;44833;-84
2022/06/29 04:33:50;;;;;;;;;;;18.60;97.20;;;;;;4361590;32;43954;-83
2022/06/29 04:36:17;;;;;;;;;;;18.60;97.10;;;;;;4373633;32;43260;-84
2022/06/29 04:38:45;;;;;;;;;;;18.60;97.10;;;;;;4361595;32;44902;-84
2022/06/29 04:41:13;;;;;;;;;;;18.60;97.10;;;;;;4361239;32;45439;-85
2022/06/29 04:43:40;;;;;;;;;;;18.60;97.30;;;;;;4361694;32;45197;-84
2022/06/29 04:46:19;;;;;;;;;;;18.50;97.30;;;;;;4361479;32;43996;-85
2022/06/29 04:48:56;;;;;;;;;;;18.60;97.10;;;;;;4361723;32;44101;-85
2022/06/29 04:51:24;;;;;;;;;;;18.60;97.30;;;;;;4361361;32;43538;-85
2022/06/29 04:53:56;;;;;;;;;;;18.60;97.10;;;;;;4373488;32;43494;-85
2022/06/29 04:56:24;;;;;;;;;;;18.60;97.00;;;;;;4361793;32;44030;-84
2022/06/29 04:58:53;;;;;;;;;;;18.60;97.30;;;;;;4373879;32;43877;-85
2022/06/29 05:01:30;;;;;;;;;;;18.60;97.40;;;;;;4361248;32;44451;-85
2022/06/29 05:04:01;;;;;;;;;;;18.60;97.40;;;;;;4361550;32;44915;-85
2022/06/29 05:06:28;;;;;;;;;;;18.60;97.30;;;;;;4374658;32;43368;-84
2022/06/29 05:08:56;;;;;;;;;;;18.60;97.30;;;;;;4373408;32;44339;-86
2022/06/29 05:11:25;;;;;;;;;;;18.60;97.40;;;;;;4361670;32;43228;-85
2022/06/29 05:13:52;;;;;;;;;;;18.60;97.10;;;;;;4361133;32;43962;-84
2022/06/29 05:16:20;;;;;;;;;;;18.60;97.30;;;;;;4373246;32;43332;-85
2022/06/29 05:18:48;;;;;;;;;;;18.60;97.10;;;;;;4363733;32;42819;-85
2022/06/29 05:21:16;;;;;;;;;;;18.60;97.00;;;;;;4376393;32;44375;-84
2022/06/29 05:23:45;;;;;;;;;;;18.60;97.10;;;;;;4377748;32;43316;-83
2022/06/29 05:26:38;;;;;;;;;;;18.60;97.40;;;;;;4365896;32;43958;-84
2022/06/29 05:29:18;;;;;;;;;;;18.60;97.10;;;;;;4376721;32;42219;-82
2022/06/29 05:31:49;;;;;;;;;;;18.70;97.20;;;;;;4365585;32;20005;-83
2022/06/29 05:34:16;;;;;;;;;;;18.60;97.10;;;;;;4376319;32;42615;-83
2022/06/29 05:36:43;;;;;;;;;;;18.60;97.10;;;;;;4377354;32;42869;-85
2022/06/29 05:39:25;;;;;;;;;;;18.70;97.30;;;;;;4363568;32;43469;-83
2022/06/29 05:41:54;;;;;;;;;;;18.70;97.10;;;;;;4363993;32;44058;-83
2022/06/29 05:44:21;;;;;;;;;;;18.70;97.10;;;;;;4364961;32;20042;-86
2022/06/29 05:46:49;;;;;;;;;;;18.70;97.20;;;;;;4375871;32;43903;-82
2022/06/29 05:49:24;;;;;;;;;;;18.70;97.10;;;;;;4364063;32;45003;-79
2022/06/29 05:51:52;;;;;;;;;;;18.70;97.10;;;;;;4378229;32;20007;-85
2022/06/29 05:54:25;;;;;;;;;;;18.70;96.90;;;;;;4375815;32;44031;-80
2022/06/29 05:56:58;;;;;;;;;;;18.70;97.00;;;;;;4376832;32;43008;-85
2022/06/29 05:59:25;;;;;;;;;;;18.70;97.30;;;;;;4377127;32;43938;-83
2022/06/29 06:01:52;;;;;;;;;;;18.70;97.10;;;;;;4360566;32;44824;-84
2022/06/29 06:04:19;;;;;;;;;;;18.70;97.30;;;;;;4362315;32;43978;-85
2022/06/29 06:06:47;;;;;;;;;;;18.80;97.50;;;;;;4360518;32;44194;-84
2022/06/29 06:09:14;;;;;;;;;;;18.80;97.70;;;;;;4361100;32;44375;-82
2022/06/29 06:11:41;;;;;;;;;;;18.80;97.70;;;;;;4360880;32;44602;-85
2022/06/29 06:14:08;;;;;;;;;;;18.80;97.50;;;;;;4361076;32;43396;-84
2022/06/29 06:16:35;;;;;;;;;;;18.80;97.50;;;;;;4360538;32;43906;-89
2022/06/29 06:19:07;;;;;;;;;;;18.80;97.40;;;;;;4361149;32;43096;-83
2022/06/29 06:21:37;;;;;;;;;;;18.80;97.40;;;;;;4360459;32;45877;-85
2022/06/29 06:24:05;;;;;;;;;;;18.80;97.30;;;;;;4362145;32;45621;-82
2022/06/29 06:26:32;;;;;;;;;;;18.80;97.50;;;;;;4360711;32;44981;-85
2022/06/29 06:28:59;;;;;;;;;;;18.80;97.40;;;;;;4359930;32;43421;-83
2022/06/29 06:31:26;;;;;;;;;;;18.80;97.50;;;;;;4360820;32;45833;-85
2022/06/29 06:33:54;;;;;;;;;;;18.80;97.70;;;;;;4361891;32;44064;-87
2022/06/29 06:36:21;;;;;;;;;;;18.80;97.70;;;;;;4360385;32;43321;-82
2022/06/29 06:38:48;;;;;;;;;;;18.90;97.60;;;;;;4360553;32;44073;-84
2022/06/29 06:41:21;;;;;;;;;;;18.90;97.50;;;;;;4360570;32;43981;-83
2022/06/29 06:43:49;;;;;;;;;;;18.80;97.20;;;;;;4360730;32;44176;-85
2022/06/29 06:46:16;;;;;;;;;;;18.80;97.20;;;;;;4359961;32;45431;-86
2022/06/29 06:48:43;;;;;;;;;;;18.80;97.20;;;;;;4361808;32;44305;-89
2022/06/29 06:51:11;;;;;;;;;;;18.80;97.20;;;;;;4360219;32;42894;-84
2022/06/29 06:53:39;;;;;;;;;;;18.80;97.30;;;;;;4360428;32;43138;-84
2022/06/29 06:56:06;;;;;;;;;;;18.80;97.20;;;;;;4360336;32;44720;-85
2022/06/29 06:58:37;;;;;;;;;;;18.90;97.40;;;;;;4361562;32;43482;-86
2022/06/29 07:01:12;;;;;;;;;;;18.80;97.50;;;;;;4361395;32;44269;-85
2022/06/29 07:03:39;;;;;;;;;;;18.90;97.70;;;;;;4376441;32;44825;-83
2022/06/29 07:06:07;;;;;;;;;;;18.90;97.60;;;;;;4376310;32;45658;-84
2022/06/29 07:08:36;;;;;;;;;;;18.90;97.60;;;;;;4376262;32;45665;-85
2022/06/29 07:11:03;;;;;;;;;;;18.90;97.70;;;;;;4362608;32;43086;-82
2022/06/29 07:13:34;;;;;;;;;;;18.90;97.60;;;;;;4376163;32;43115;-83
2022/06/29 07:16:03;;;;;;;;;;;18.90;97.70;;;;;;4375726;32;43065;-85
2022/06/29 07:18:31;;;;;;;;;;;18.90;97.80;;;;;;4362635;32;44212;-85
2022/06/29 07:20:58;;;;;;;;;;;18.90;97.90;;;;;;4374521;32;43304;-86
2022/06/29 07:23:27;;;;;;;;;;;19.00;97.90;;;;;;4362674;32;44974;-85
2022/06/29 07:25:54;;;;;;;;;;;19.00;98.30;;;;;;4362448;32;44271;-88
2022/06/29 07:28:22;;;;;;;;;;;19.00;98.10;;;;;;4374894;32;43801;-84
2022/06/29 07:30:49;;;;;;;;;;;19.00;98.10;;;;;;4375776;32;43189;-83
2022/06/29 07:33:16;;;;;;;;;;;19.00;98.30;;;;;;4374395;32;43081;-83
2022/06/29 07:35:43;;;;;;;;;;;19.00;98.30;;;;;;4362415;32;45140;-86
2022/06/29 07:38:10;;;;;;;;;;;19.00;98.20;;;;;;4375408;32;43674;-83
2022/06/29 07:40:37;;;;;;;;;;;19.00;98.20;;;;;;4374450;32;44011;-83
2022/06/29 07:43:04;;;;;;;;;;;19.00;98.30;;;;;;4362336;32;45286;-83
2022/06/29 07:45:32;;;;;;;;;;;19.00;98.30;;;;;;4375451;32;43916;-84
2022/06/29 07:48:01;;;;;;;;;;;19.00;98.30;;;;;;4374281;32;44483;-83
2022/06/29 07:50:28;;;;;;;;;;;19.00;98.40;;;;;;4362231;32;43189;-84
2022/06/29 07:52:55;;;;;;;;;;;19.00;98.40;;;;;;4375668;32;44985;-85
2022/06/29 07:55:24;;;;;;;;;;;19.00;98.40;;;;;;4375737;32;44042;-85
2022/06/29 07:57:54;;;;;;;;;;;19.10;98.60;;;;;;4361614;32;44657;-84
2022/06/29 08:00:22;;;;;;;;;;;19.00;98.70;;;;;;4375396;32;42823;-83
2022/06/29 08:02:51;;;;;;;;;;;19.10;98.70;;;;;;4374124;32;44071;-83
2022/06/29 08:05:20;;;;;;;;;;;19.10;98.80;;;;;;4375470;32;43169;-87
2022/06/29 08:07:47;;;;;;;;;;;19.10;98.90;;;;;;4374234;32;45195;-82
2022/06/29 08:10:14;;;;;;;;;;;19.10;98.80;;;;;;4374974;32;43282;-82
2022/06/29 08:12:41;;;;;;;;;;;19.10;98.70;;;;;;4361731;32;42844;-81
2022/06/29 08:15:08;;;;;;;;;;;19.10;98.90;;;;;;4375075;32;44176;-81
2022/06/29 08:17:35;;;;;;;;;;;19.10;99.00;;;;;;4375285;32;42741;-85
2022/06/29 08:20:03;;;;;;;;;;;19.20;99.00;;;;;;4362053;32;44184;-85
2022/06/29 08:22:30;;;;;;;;;;;19.20;99.00;;;;;;4374032;32;44196;-84
2022/06/29 08:24:57;;;;;;;;;;;19.20;99.20;;;;;;4361664;32;43774;-85
2022/06/29 08:27:25;;;;;;;;;;;19.20;99.20;;;;;;4375219;32;44998;-86
2022/06/29 08:30:11;;;;;;;;;;;19.20;99.50;;;;;;4374251;32;44286;-84
2022/06/29 08:32:42;;;;;;;;;;;19.20;99.20;;;;;;4361746;32;42262;-83
2022/06/29 08:35:10;;;;;;;;;;;19.30;99.50;;;;;;4374115;32;44240;-90
2022/06/29 08:37:38;;;;;;;;;;;19.30;99.40;;;;;;4374965;32;44038;-84
2022/06/29 08:40:06;;;;;;;;;;;19.30;99.30;;;;;;4375127;32;43474;-85
2022/06/29 08:42:35;;;;;;;;;;;19.30;99.40;;;;;;4374079;32;43226;-85
2022/06/29 08:45:03;;;;;;;;;;;19.40;99.70;;;;;;4375155;32;44257;-80
2022/06/29 08:47:30;;;;;;;;;;;19.40;99.50;;;;;;4375101;32;43486;-83
2022/06/29 08:49:57;;;;;;;;;;;19.40;99.70;;;;;;4374723;32;44076;-80
2022/06/29 08:52:28;;;;;;;;;;;19.40;99.80;;;;;;4374248;32;43345;-82
2022/06/29 08:54:56;;;;;;;;;;;19.50;99.70;;;;;;4374604;32;43039;-81
2022/06/29 08:57:23;;;;;;;;;;;19.50;99.80;;;;;;4373875;32;45250;-85
2022/06/29 08:59:51;;;;;;;;;;;19.50;99.60;;;;;;4361542;32;43065;-81
2022/06/29 09:02:28;;;;;;;;;;;19.50;99.60;;;;;;4362031;32;43511;-80
2022/06/29 09:04:55;;;;;;;;;;;19.50;99.60;;;;;;4374436;32;44219;-82
2022/06/29 09:07:26;;;;;;;;;;;19.50;99.60;;;;;;4373380;32;44166;-82
2022/06/29 09:10:00;;;;;;;;;;;19.60;99.70;;;;;;4374693;32;43005;-81
2022/06/29 09:12:28;;;;;;;;;;;19.60;99.80;;;;;;4374727;32;44263;-83
2022/06/29 09:14:55;;;;;;;;;;;19.60;99.80;;;;;;4374360;32;44922;-82
2022/06/29 09:17:24;;;;;;;;;;;19.60;99.70;;;;;;4361130;32;44073;-82
2022/06/29 09:19:56;;;;;;;;;;;19.60;99.40;;;;;;4374285;32;43612;-83
2022/06/29 09:22:50;;;;;;;;;;;19.70;99.40;;;;;;4363685;32;44993;-80
2022/06/29 09:25:25;;;;;;;;;;;19.70;99.50;;;;;;4374761;32;44298;-81
2022/06/29 09:27:55;;;;;;;;;;;19.70;99.60;;;;;;4360972;32;44614;-81
2022/06/29 09:30:28;;;;;;;;;;;19.70;99.60;;;;;;4361679;32;44211;-81
2022/06/29 09:33:04;;;;;;;;;;;19.70;99.50;;;;;;4374883;32;43898;-81
2022/06/29 09:35:32;;;;;;;;;;;19.70;99.70;;;;;;4361283;32;42669;-82
2022/06/29 09:38:17;;;;;;;;;;;19.80;99.60;;;;;;4360950;32;43578;-84
2022/06/29 09:41:01;;;;;;;;;;;19.80;99.70;;;;;;4361310;32;43571;-80
2022/06/29 09:43:29;;;;;;;;;;;19.80;99.50;;;;;;4374280;32;42780;-81
2022/06/29 09:45:56;;;;;;;;;;;19.90;99.70;;;;;;4374587;32;44024;-80
2022/06/29 09:48:25;;;;;;;;;;;19.80;99.60;;;;;;4360613;32;44718;-80
2022/06/29 09:50:53;;;;;;;;;;;19.90;99.70;;;;;;4374269;32;43156;-80
2022/06/29 09:53:24;;;;;;;;;;;19.90;99.70;;;;;;4361100;32;44535;-80
2022/06/29 09:55:53;;;;;;;;;;;19.90;99.80;;;;;;4374209;32;44143;-80
2022/06/29 09:58:28;;;;;;;;;;;20.00;99.90;;;;;;4373029;32;43032;-79
2022/06/29 10:03:46;;;;;;;;;;;20.00;99.90;;;;;;4361125;32;43428;-81
2022/06/29 10:06:16;;;;;;;;;;;20.00;99.90;;;;;;4376678;32;43759;-80
2022/06/29 10:08:45;;;;;;;;;;;20.00;99.90;;;;;;4375905;32;43545;-81
2022/06/29 10:14:04;;;;;;;;;;;20.00;99.90;;;;;;4376543;32;44089;-80
2022/06/29 10:16:37;;;;;;;;;;;20.00;99.90;;;;;;4376914;32;46115;-81
2022/06/29 10:19:07;;;;;;;;;;;20.00;99.90;;;;;;4376912;32;45664;-82
2022/06/29 10:21:34;;;;;;;;;;;20.00;99.90;;;;;;4377117;32;43533;-82
2022/06/29 10:24:05;;;;;;;;;;;20.00;99.90;;;;;;4376608;32;43515;-80
2022/06/29 10:26:35;;;;;;;;;;;20.00;99.90;;;;;;4363653;32;43380;-81
2022/06/29 10:29:05;;;;;;;;;;;20.00;99.70;;;;;;4363481;32;42884;-81
2022/06/29 10:31:51;;;;;;;;;;;20.00;99.70;;;;;;4376983;32;43482;-80
2022/06/29 10:34:31;;;;;;;;;;;20.00;99.80;;;;;;4363457;32;43296;-81
2022/06/29 10:36:59;;;;;;;;;;;20.00;99.70;;;;;;4362925;32;44294;-80
2022/06/29 10:39:26;;;;;;;;;;;20.10;99.80;;;;;;4363143;32;44195;-81
2022/06/29 10:44:59;;;;;;;;;;;20.10;99.70;;;;;;4376724;32;44208;-80
2022/06/29 10:47:26;;;;;;;;;;;20.10;99.70;;;;;;4375015;32;42422;-80
2022/06/29 10:50:11;;;;;;;;;;;20.10;99.70;;;;;;4376058;32;43254;-79
2022/06/29 10:52:39;;;;;;;;;;;20.20;99.60;;;;;;4376127;32;42854;-78
2022/06/29 10:55:06;;;;;;;;;;;20.20;99.50;;;;;;4376040;32;43927;-78
2022/06/29 10:57:34;;;;;;;;;;;20.20;99.60;;;;;;4376339;32;44781;-79
2022/06/29 11:00:09;;;;;;;;;;;20.20;99.30;;;;;;4362490;32;42783;-78
2022/06/29 11:02:37;;;;;;;;;;;20.30;99.20;;;;;;4375773;32;43844;-79
2022/06/29 11:05:04;;;;;;;;;;;20.30;99.00;;;;;;4376427;32;44203;-79
2022/06/29 11:13:11;;;;;;;;;;;20.40;99.00;;;;;;4376264;32;41910;-79
2022/06/29 11:15:48;;;;;;;;;;;20.40;99.10;;;;;;4375122;32;44202;-78
2022/06/29 11:18:16;;;;;;;;;;;20.50;98.80;;;;;;4375730;32;44294;-79
2022/06/29 11:20:44;;;;;;;;;;;20.50;98.80;;;;;;4375743;32;43051;-79
2022/06/29 11:23:12;;;;;;;;;;;20.60;98.70;;;;;;4375944;32;43474;-79
2022/06/29 11:25:42;;;;;;;;;;;20.60;98.80;;;;;;4362770;32;44219;-79
2022/06/29 11:28:09;;;;;;;;;;;20.60;98.60;;;;;;4362385;32;43354;-79
2022/06/29 11:30:36;;;;;;;;;;;20.60;98.50;;;;;;4375525;32;43785;-80
2022/06/29 11:33:10;;;;;;;;;;;20.70;98.40;;;;;;4376181;32;43217;-79
2022/06/29 11:35:38;;;;;;;;;;;20.70;98.60;;;;;;4375544;32;43957;-79
2022/06/29 11:38:07;;;;;;;;;;;20.70;98.70;;;;;;4375917;32;43874;-78
2022/06/29 11:40:35;;;;;;;;;;;20.70;98.50;;;;;;4375367;32;43380;-78
2022/06/29 11:43:07;;;;;;;;;;;20.70;98.30;;;;;;4363289;32;20432;-79
2022/06/29 11:45:36;;;;;;;;;;;20.70;98.10;;;;;;4362134;32;42948;-79
2022/06/29 11:48:10;;;;;;;;;;;20.70;98.10;;;;;;4375198;32;43298;-79
2022/06/29 11:50:41;;;;;;;;;;;20.80;97.60;;;;;;4375615;32;31467;-80
2022/06/29 11:53:08;;;;;;;;;;;20.80;97.80;;;;;;4362118;32;43466;-80
2022/06/29 11:55:43;;;;;;;;;;;20.80;97.50;;;;;;4374166;32;44225;-79
2022/06/29 11:58:11;;;;;;;;;;;20.90;97.80;;;;;;4375619;32;44297;-80
2022/06/29 12:00:39;;;;;;;;;;;20.90;97.60;;;;;;4361615;32;44457;-79
2022/06/29 12:03:07;;;;;;;;;;;20.90;97.70;;;;;;4371564;32;43295;-79
2022/06/29 12:05:34;;;;;;;;;;;20.90;97.90;;;;;;4360178;32;42685;-80
2022/06/29 12:08:02;;;;;;;;;;;20.90;97.80;;;;;;4360069;32;44305;-80
2022/06/29 12:10:29;;;;;;;;;;;20.90;97.90;;;;;;4360034;32;43318;-79
2022/06/29 12:12:56;;;;;;;;;;;20.90;97.60;;;;;;4360363;32;44107;-79
2022/06/29 12:15:23;;;;;;;;;;;20.90;97.70;;;;;;4359073;32;42251;-79
2022/06/29 12:17:51;;;;;;;;;;;20.90;97.80;;;;;;4359090;32;43217;-80
2022/06/29 12:20:21;;;;;;;;;;;21.00;97.80;;;;;;4360338;32;43329;-78
2022/06/29 12:23:06;;;;;;;;;;;21.00;97.50;;;;;;4360651;32;43212;-78
2022/06/29 12:25:34;;;;;;;;;;;21.00;97.60;;;;;;4360335;32;43865;-78
2022/06/29 12:28:02;;;;;;;;;;;21.00;97.30;;;;;;4358719;32;42660;-79
2022/06/29 12:30:29;;;;;;;;;;;21.00;97.70;;;;;;4359838;32;43113;-80
2022/06/29 12:32:56;;;;;;;;;;;21.00;97.50;;;;;;4359256;32;43225;-78
2022/06/29 12:35:24;;;;;;;;;;;21.00;97.50;;;;;;4359199;32;43903;-79
2022/06/29 12:37:53;;;;;;;;;;;21.10;97.60;;;;;;4359895;32;43467;-78
2022/06/29 12:40:20;;;;;;;;;;;21.10;97.30;;;;;;4359718;32;43451;-78
2022/06/29 12:42:48;;;;;;;;;;;21.10;97.50;;;;;;4358801;32;43268;-78
2022/06/29 12:45:15;;;;;;;;;;;21.10;97.40;;;;;;4359829;32;44879;-78
2022/06/29 12:47:43;;;;;;;;;;;21.10;97.30;;;;;;4360148;32;44196;-78
2022/06/29 12:50:11;;;;;;;;;;;21.10;97.20;;;;;;4358930;32;43807;-78
2022/06/29 12:52:42;;;;;;;;;;;21.20;97.40;;;;;;4359645;32;43760;-80
2022/06/29 12:55:09;;;;;;;;;;;21.20;97.30;;;;;;4359140;32;44309;-79
2022/06/29 12:57:36;;;;;;;;;;;21.20;97.40;;;;;;4358531;33;42694;-78
2022/06/29 13:00:03;;;;;;;;;;;21.20;97.50;;;;;;4358882;33;45220;-78
2022/06/29 13:02:31;;;;;;;;;;;21.30;97.50;;;;;;4367928;32;44236;-79
2022/06/29 13:04:58;;;;;;;;;;;21.20;97.60;;;;;;4361396;32;44629;-78
2022/06/29 13:07:26;;;;;;;;;;;21.20;97.40;;;;;;4374840;32;43911;-81
2022/06/29 13:09:53;;;;;;;;;;;21.30;97.40;;;;;;4374864;32;42219;-79
2022/06/29 13:12:21;;;;;;;;;;;21.20;97.40;;;;;;4361286;32;44199;-79
2022/06/29 13:14:49;;;;;;;;;;;21.30;97.50;;;;;;4374810;32;43231;-78
2022/06/29 13:17:16;;;;;;;;;;;21.30;97.50;;;;;;4373772;32;44545;-78
2022/06/29 13:19:43;;;;;;;;;;;21.30;97.40;;;;;;4361556;32;43105;-78
2022/06/29 13:22:12;;;;;;;;;;;21.40;97.60;;;;;;4374350;32;44168;-77
2022/06/29 13:24:39;;;;;;;;;;;21.40;97.80;;;;;;4361100;32;43546;-78
2022/06/29 13:27:06;;;;;;;;;;;21.40;97.60;;;;;;4374300;32;45318;-77
2022/06/29 13:29:33;;;;;;;;;;;21.50;97.50;;;;;;4374580;32;43275;-79
2022/06/29 13:32:01;;;;;;;;;;;21.50;97.50;;;;;;4374779;32;44314;-78
2022/06/29 13:34:28;;;;;;;;;;;21.50;97.70;;;;;;4374816;32;46018;-78
2022/06/29 13:36:56;;;;;;;;;;;21.50;97.50;;;;;;4374276;32;44282;-78
2022/06/29 13:39:25;;;;;;;;;;;21.50;97.60;;;;;;4376639;32;43224;-78
2022/06/29 13:41:52;;;;;;;;;;;21.50;97.50;;;;;;4377641;32;44173;-79
2022/06/29 13:44:25;;;;;;;;;;;21.60;97.10;;;;;;4364810;32;44150;-79
2022/06/29 13:46:52;;;;;;;;;;;21.60;97.40;;;;;;4376022;32;45425;-78
2022/06/29 13:49:19;;;;;;;;;;;21.60;97.50;;;;;;4377191;32;43773;-82
2022/06/29 13:51:49;;;;;;;;;;;21.60;97.50;;;;;;4377187;32;43217;-79
2022/06/29 13:54:16;;;;;;;;;;;21.60;97.10;;;;;;4377276;32;44039;-79
2022/06/29 13:56:43;;;;;;;;;;;21.60;97.10;;;;;;4363962;32;44056;-79
2022/06/29 13:59:13;;;;;;;;;;;21.70;97.20;;;;;;4375903;32;43541;-79
2022/06/29 14:01:40;;;;;;;;;;;21.70;97.40;;;;;;4363556;32;43478;-79
2022/06/29 14:04:09;;;;;;;;;;;21.70;97.50;;;;;;4377044;32;42386;-80
2022/06/29 14:06:36;;;;;;;;;;;21.70;97.70;;;;;;4375926;32;43588;-79
2022/06/29 14:09:03;;;;;;;;;;;21.70;97.60;;;;;;4363575;32;43485;-80
2022/06/29 14:11:36;;;;;;;;;;;21.70;97.70;;;;;;4377206;32;43258;-80
2022/06/29 14:14:03;;;;;;;;;;;21.70;97.70;;;;;;4376823;32;44032;-80
2022/06/29 14:16:31;;;;;;;;;;;21.70;97.80;;;;;;4376656;32;44025;-77
2022/06/29 14:18:58;;;;;;;;;;;21.70;97.50;;;;;;4363296;32;45524;-77
2022/06/29 14:21:25;;;;;;;;;;;21.80;97.40;;;;;;4375537;32;42078;-78
2022/06/29 14:23:52;;;;;;;;;;;21.80;97.50;;;;;;4377016;32;43754;-77
2022/06/29 14:26:19;;;;;;;;;;;21.80;97.30;;;;;;4375825;32;43471;-77
2022/06/29 14:28:46;;;;;;;;;;;21.80;97.40;;;;;;4376893;32;43288;-77
2022/06/29 14:31:14;;;;;;;;;;;21.80;97.30;;;;;;4362950;32;44342;-77
2022/06/29 14:33:41;;;;;;;;;;;21.80;97.40;;;;;;4376823;32;42460;-77
2022/06/29 14:36:15;;;;;;;;;;;21.80;97.40;;;;;;4363847;32;41999;-77
2022/06/29 14:38:42;;;;;;;;;;;21.80;97.40;;;;;;4375600;32;42825;-77
2022/06/29 14:41:09;;;;;;;;;;;21.80;97.50;;;;;;4376275;32;43395;-76
2022/06/29 14:43:37;;;;;;;;;;;21.80;97.50;;;;;;4376734;32;43862;-76